Victoria, British Columbia

6:58 AM PDT on May 23, 2015 (GMT -0700)
Victoria Harbour | | Change Station
CLOSE
Current Station
Airport
Location: Victoria Harbour,
Elevation: 0 ft
Nearby Weather Stations

Elev 0 ft 48.42 °N, 123.39 °W | Updated 58 minutes ago

Mostly Cloudy
Mostly Cloudy
52 °F
Feels Like 52 °F
N
4
Wind Variable Wind from SSW

Today is forecast to be nearly the same temperature as yesterday.

Today
High -- | Low -- °F
--% Chance of Precip.
Yesterday
High -- | Low -- °F
Precip. -- in
5:24 AM 8:57 PM
Waxing Crescent, 30% visible
Pressure 30.10 in
Visibility 15.0 miles
Clouds Few 800 ft
Scattered Clouds 3500 ft
Mostly Cloudy 6500 ft
Mostly Cloudy 21000 ft
Dew Point 48 °F
Humidity 88%
Rainfall 0.00 in
Snow Depth Not available.
UV 0 out of 12
Pollen Not available.
Air Quality Not available.
Flu Activity Not available.
METAR CYWH 231300Z 21003KT 15SM FEW008 SCT035 BKN065 BKN210 11/09 A3010 RMK SF1SC2SC3CI1 SLP192

More Conditions Fewer Conditions

Pressure 30.10 in
Visibility 15.0 miles
Clouds Few 800 ft
Scattered Clouds 3500 ft
Mostly Cloudy 6500 ft
Mostly Cloudy 21000 ft
Dew Point 48 °F
Humidity 88%
Rainfall 0.00 in
Snow Depth Not available.
UV 0 out of 12
Pollen Not available.
Air Quality Not available.
Flu Activity Not available.
METAR CYWH 231300Z 21003KT 15SM FEW008 SCT035 BKN065 BKN210 11/09 A3010 RMK SF1SC2SC3CI1 SLP192

More Conditions Fewer Conditions

10-Day Weather Forecast

Almanac

Astronomy

May. 23, 2015 Rise Set
Actual Time
Civil Twilight
Nautical Twilight
Astronomical Twilight
Moon
Length of Visible Light
Length of Day
Tomorrow will be .
, % of the Moon is Illuminated

Today's Extremes

Country Highs Country Lows

Community

WunderPhotos

Upload Photos

1,823,467 photos uploaded!

WunderBlogs® & News

Nearby

Air Quality

  Air Quality AQ Index Pollutant
Not available.

Snow Depth

Station Depth Elevation

Earthquake Activity

City Distance Mag. Time & Date
Minimum magnitude displayed is 2.5.

Coastal Water Temperatures

Place Temperature

Stations

Nearby Weather Stations

Station Location Temp. Windchill Dew Point Humidity Wind Precip. Elev Updated Type